Portada
METAR-TAF:

METAR-TAF

Aeroports :

Funafuti, Tuvalu

latitud: 08-31S, longitud: 179-13E, altitud: 1 m

Observació

L'informe es va fer fa 46 minuts, a les 17:00 UTC
Vent 2 kt del Oest
Temperatura 28°C
Humitat 79%
Pressió 1009 hPa
Visibilitat 10 km o més
Escasses núvols a una alçada de 1900 ft
Cel ennuvolat a una alçada de 11000 ft

METAR: NGFU 231700Z 26002KT 9999 FEW019 BKN110 28/24 Q1009

Hora: 05:46 (17:46 UTC)

Pronòstic

L'informe es va fer fa 38 minuts, a les 17:08 UTC
Pronòstic vàlid del 23 a les 18 UTC al 24 a les 18 UTC
Vent 3 kt amb direcció variable
Visibilitat 10 km o més
Escasses núvols a una alçada de 2000 ft

TAF: NGFU 231708Z 2318/2418 VRB03KT 9999 FEW020

Observacions i pronòstics meteorològics de més de 4000 aeroports (METAR i TAF).

Les estacions disponibles són els punts grocs i vermells al mapa.

Posi el ratolí al punt desitjat per veure el nom de l'estació.

Feu clic per veure les observacions i els pronòstics meteorològics.

Per canviar el mapa: feu clic els botons verds amb una creu de color negre per apropar; al botó verd amb un guió per allunyar la imatge; o en les fletxes verdes per a mapes adjacents.


METAR-TAF: